sensor_id;sensor_type;location;lat;lon;timestamp;P1;durP1;ratioP1;P2;durP2;ratioP2
4055;SDS011;2043;52.184;8.690;2023-08-24T00:01:07;12.57;;;4.90;;
4055;SDS011;2043;52.184;8.690;2023-08-24T00:03:36;16.83;;;4.90;;
4055;SDS011;2043;52.184;8.690;2023-08-24T00:06:03;15.73;;;4.90;;
4055;SDS011;2043;52.184;8.690;2023-08-24T00:08:30;12.03;;;4.83;;
4055;SDS011;2043;52.184;8.690;2023-08-24T00:10:57;7.20;;;4.30;;
4055;SDS011;2043;52.184;8.690;2023-08-24T00:13:25;10.40;;;4.80;;
4055;SDS011;2043;52.184;8.690;2023-08-24T00:15:52;10.13;;;4.80;;
4055;SDS011;2043;52.184;8.690;2023-08-24T00:18:20;13.80;;;5.23;;
4055;SDS011;2043;52.184;8.690;2023-08-24T00:20:49;12.97;;;5.13;;
4055;SDS011;2043;52.184;8.690;2023-08-24T00:23:17;8.23;;;4.40;;
4055;SDS011;2043;52.184;8.690;2023-08-24T00:25:44;7.40;;;4.70;;
4055;SDS011;2043;52.184;8.690;2023-08-24T00:28:11;7.70;;;4.43;;
4055;SDS011;2043;52.184;8.690;2023-08-24T00:30:38;13.93;;;4.90;;
4055;SDS011;2043;52.184;8.690;2023-08-24T00:33:05;17.93;;;5.10;;
4055;SDS011;2043;52.184;8.690;2023-08-24T00:35:32;7.90;;;4.90;;
4055;SDS011;2043;52.184;8.690;2023-08-24T00:37:59;14.43;;;6.00;;
4055;SDS011;2043;52.184;8.690;2023-08-24T00:40:26;11.87;;;4.40;;
4055;SDS011;2043;52.184;8.690;2023-08-24T00:42:53;8.67;;;4.63;;
4055;SDS011;2043;52.184;8.690;2023-08-24T00:45:20;7.80;;;4.73;;
4055;SDS011;2043;52.184;8.690;2023-08-24T00:47:47;15.10;;;5.50;;
4055;SDS011;2043;52.184;8.690;2023-08-24T00:50:16;13.63;;;5.80;;
4055;SDS011;2043;52.184;8.690;2023-08-24T00:52:43;17.30;;;7.87;;
4055;SDS011;2043;52.184;8.690;2023-08-24T00:55:11;9.07;;;5.23;;
4055;SDS011;2043;52.184;8.690;2023-08-24T00:57:40;10.40;;;6.00;;
4055;SDS011;2043;52.184;8.690;2023-08-24T01:00:08;8.80;;;5.00;;
4055;SDS011;2043;52.184;8.690;2023-08-24T01:02:38;12.37;;;6.00;;
4055;SDS011;2043;52.184;8.690;2023-08-24T01:05:06;12.27;;;4.80;;
4055;SDS011;2043;52.184;8.690;2023-08-24T01:07:37;10.67;;;5.53;;
4055;SDS011;2043;52.184;8.690;2023-08-24T01:10:05;10.63;;;5.00;;
4055;SDS011;2043;52.184;8.690;2023-08-24T01:15:07;8.10;;;5.17;;
4055;SDS011;2043;52.184;8.690;2023-08-24T01:17:42;20.03;;;5.90;;
4055;SDS011;2043;52.184;8.690;2023-08-24T01:20:10;10.47;;;5.50;;
4055;SDS011;2043;52.184;8.690;2023-08-24T01:22:46;13.57;;;5.70;;
4055;SDS011;2043;52.184;8.690;2023-08-24T01:25:19;9.87;;;5.43;;
4055;SDS011;2043;52.184;8.690;2023-08-24T01:27:56;12.23;;;5.13;;
4055;SDS011;2043;52.184;8.690;2023-08-24T01:30:25;9.90;;;5.43;;
4055;SDS011;2043;52.184;8.690;2023-08-24T01:32:52;8.63;;;5.73;;
4055;SDS011;2043;52.184;8.690;2023-08-24T01:35:19;13.63;;;5.40;;
4055;SDS011;2043;52.184;8.690;2023-08-24T01:37:46;10.63;;;5.63;;
4055;SDS011;2043;52.184;8.690;2023-08-24T01:40:15;13.03;;;5.87;;
4055;SDS011;2043;52.184;8.690;2023-08-24T01:42:58;13.03;;;5.27;;
4055;SDS011;2043;52.184;8.690;2023-08-24T01:45:27;9.40;;;5.00;;
4055;SDS011;2043;52.184;8.690;2023-08-24T01:47:55;8.23;;;5.20;;
4055;SDS011;2043;52.184;8.690;2023-08-24T01:50:23;17.50;;;5.50;;
4055;SDS011;2043;52.184;8.690;2023-08-24T01:52:50;10.87;;;5.90;;
4055;SDS011;2043;52.184;8.690;2023-08-24T01:55:18;14.50;;;6.00;;
4055;SDS011;2043;52.184;8.690;2023-08-24T01:57:46;10.87;;;5.97;;
4055;SDS011;2043;52.184;8.690;2023-08-24T02:00:14;10.70;;;6.10;;
4055;SDS011;2043;52.184;8.690;2023-08-24T02:02:41;8.20;;;5.57;;
4055;SDS011;2043;52.184;8.690;2023-08-24T02:05:09;8.57;;;5.70;;
4055;SDS011;2043;52.184;8.690;2023-08-24T02:07:38;21.30;;;5.27;;
4055;SDS011;2043;52.184;8.690;2023-08-24T02:10:05;13.63;;;5.77;;
4055;SDS011;2043;52.184;8.690;2023-08-24T02:12:33;12.60;;;5.33;;
4055;SDS011;2043;52.184;8.690;2023-08-24T02:14:59;13.10;;;5.80;;
4055;SDS011;2043;52.184;8.690;2023-08-24T02:17:26;12.00;;;5.73;;
4055;SDS011;2043;52.184;8.690;2023-08-24T02:19:53;11.77;;;6.47;;
4055;SDS011;2043;52.184;8.690;2023-08-24T02:22:21;12.70;;;5.60;;
4055;SDS011;2043;52.184;8.690;2023-08-24T02:24:47;25.63;;;6.13;;
4055;SDS011;2043;52.184;8.690;2023-08-24T02:27:14;14.53;;;5.90;;
4055;SDS011;2043;52.184;8.690;2023-08-24T02:29:41;9.93;;;5.20;;
4055;SDS011;2043;52.184;8.690;2023-08-24T02:32:09;7.33;;;5.40;;
4055;SDS011;2043;52.184;8.690;2023-08-24T02:34:35;10.20;;;5.50;;
4055;SDS011;2043;52.184;8.690;2023-08-24T02:37:02;11.27;;;5.77;;
4055;SDS011;2043;52.184;8.690;2023-08-24T02:39:29;13.43;;;6.30;;
4055;SDS011;2043;52.184;8.690;2023-08-24T02:41:56;11.33;;;6.80;;
4055;SDS011;2043;52.184;8.690;2023-08-24T02:44:22;10.67;;;6.13;;
4055;SDS011;2043;52.184;8.690;2023-08-24T02:46:49;12.43;;;6.80;;
4055;SDS011;2043;52.184;8.690;2023-08-24T02:49:16;14.50;;;6.40;;
4055;SDS011;2043;52.184;8.690;2023-08-24T02:51:43;7.90;;;6.23;;
4055;SDS011;2043;52.184;8.690;2023-08-24T02:54:09;8.90;;;6.63;;
4055;SDS011;2043;52.184;8.690;2023-08-24T02:56:36;10.60;;;6.50;;
4055;SDS011;2043;52.184;8.690;2023-08-24T02:59:03;10.50;;;6.80;;
4055;SDS011;2043;52.184;8.690;2023-08-24T03:01:30;11.97;;;6.47;;
4055;SDS011;2043;52.184;8.690;2023-08-24T03:03:57;29.83;;;7.67;;
4055;SDS011;2043;52.184;8.690;2023-08-24T03:06:24;10.07;;;6.23;;
4055;SDS011;2043;52.184;8.690;2023-08-24T03:08:51;12.43;;;6.50;;
4055;SDS011;2043;52.184;8.690;2023-08-24T03:11:18;12.07;;;7.23;;
4055;SDS011;2043;52.184;8.690;2023-08-24T03:13:44;11.97;;;6.30;;
4055;SDS011;2043;52.184;8.690;2023-08-24T03:16:11;12.33;;;6.23;;
4055;SDS011;2043;52.184;8.690;2023-08-24T03:18:38;15.70;;;7.40;;
4055;SDS011;2043;52.184;8.690;2023-08-24T03:21:06;12.03;;;6.50;;
4055;SDS011;2043;52.184;8.690;2023-08-24T03:23:33;22.63;;;7.07;;
4055;SDS011;2043;52.184;8.690;2023-08-24T03:26:00;13.73;;;6.90;;
4055;SDS011;2043;52.184;8.690;2023-08-24T03:28:27;11.60;;;6.77;;
4055;SDS011;2043;52.184;8.690;2023-08-24T03:30:53;14.00;;;6.80;;
4055;SDS011;2043;52.184;8.690;2023-08-24T03:33:22;11.10;;;7.03;;
4055;SDS011;2043;52.184;8.690;2023-08-24T03:35:48;11.70;;;7.50;;
4055;SDS011;2043;52.184;8.690;2023-08-24T03:38:15;14.40;;;7.80;;
4055;SDS011;2043;52.184;8.690;2023-08-24T03:40:42;11.93;;;8.53;;
4055;SDS011;2043;52.184;8.690;2023-08-24T03:43:09;17.10;;;8.40;;
4055;SDS011;2043;52.184;8.690;2023-08-24T03:45:36;13.07;;;7.77;;
4055;SDS011;2043;52.184;8.690;2023-08-24T03:48:03;12.83;;;7.63;;
4055;SDS011;2043;52.184;8.690;2023-08-24T03:50:30;13.07;;;8.60;;
4055;SDS011;2043;52.184;8.690;2023-08-24T03:52:57;14.10;;;8.17;;
4055;SDS011;2043;52.184;8.690;2023-08-24T03:55:24;20.87;;;8.50;;
4055;SDS011;2043;52.184;8.690;2023-08-24T03:57:51;14.30;;;8.40;;
4055;SDS011;2043;52.184;8.690;2023-08-24T04:00:18;11.10;;;7.97;;
4055;SDS011;2043;52.184;8.690;2023-08-24T04:02:46;12.20;;;7.70;;
4055;SDS011;2043;52.184;8.690;2023-08-24T04:05:13;9.40;;;7.53;;
4055;SDS011;2043;52.184;8.690;2023-08-24T04:07:39;12.57;;;7.67;;
4055;SDS011;2043;52.184;8.690;2023-08-24T04:10:07;15.63;;;6.93;;
4055;SDS011;2043;52.184;8.690;2023-08-24T04:12:35;15.57;;;7.80;;
4055;SDS011;2043;52.184;8.690;2023-08-24T04:15:02;9.87;;;6.63;;
4055;SDS011;2043;52.184;8.690;2023-08-24T04:17:29;12.43;;;6.90;;
4055;SDS011;2043;52.184;8.690;2023-08-24T04:19:56;12.77;;;7.00;;
4055;SDS011;2043;52.184;8.690;2023-08-24T04:22:23;13.40;;;7.63;;
4055;SDS011;2043;52.184;8.690;2023-08-24T04:24:50;14.47;;;7.30;;
4055;SDS011;2043;52.184;8.690;2023-08-24T04:27:16;12.40;;;7.40;;
4055;SDS011;2043;52.184;8.690;2023-08-24T04:29:44;17.57;;;8.20;;
4055;SDS011;2043;52.184;8.690;2023-08-24T04:32:11;9.53;;;7.10;;
4055;SDS011;2043;52.184;8.690;2023-08-24T04:34:37;16.60;;;9.80;;
4055;SDS011;2043;52.184;8.690;2023-08-24T04:37:05;12.60;;;8.60;;
4055;SDS011;2043;52.184;8.690;2023-08-24T04:39:33;9.70;;;7.17;;
4055;SDS011;2043;52.184;8.690;2023-08-24T04:42:00;9.63;;;7.10;;
4055;SDS011;2043;52.184;8.690;2023-08-24T04:44:28;16.33;;;7.93;;
4055;SDS011;2043;52.184;8.690;2023-08-24T04:46:55;10.30;;;6.10;;
4055;SDS011;2043;52.184;8.690;2023-08-24T04:49:22;11.77;;;6.60;;
4055;SDS011;2043;52.184;8.690;2023-08-24T04:51:49;10.20;;;6.10;;
4055;SDS011;2043;52.184;8.690;2023-08-24T04:54:16;13.80;;;5.77;;
4055;SDS011;2043;52.184;8.690;2023-08-24T04:56:44;10.00;;;5.37;;
4055;SDS011;2043;52.184;8.690;2023-08-24T04:59:11;12.10;;;5.60;;
4055;SDS011;2043;52.184;8.690;2023-08-24T05:01:37;9.27;;;5.40;;
4055;SDS011;2043;52.184;8.690;2023-08-24T05:04:04;11.30;;;5.40;;
4055;SDS011;2043;52.184;8.690;2023-08-24T05:06:31;12.37;;;5.20;;
4055;SDS011;2043;52.184;8.690;2023-08-24T05:08:58;13.73;;;5.83;;
4055;SDS011;2043;52.184;8.690;2023-08-24T05:11:26;12.63;;;6.03;;
4055;SDS011;2043;52.184;8.690;2023-08-24T05:13:55;14.83;;;6.20;;
4055;SDS011;2043;52.184;8.690;2023-08-24T05:16:22;11.50;;;6.00;;
4055;SDS011;2043;52.184;8.690;2023-08-24T05:18:49;9.60;;;5.17;;
4055;SDS011;2043;52.184;8.690;2023-08-24T05:21:16;11.70;;;6.23;;
4055;SDS011;2043;52.184;8.690;2023-08-24T05:23:42;12.50;;;5.80;;
4055;SDS011;2043;52.184;8.690;2023-08-24T05:26:10;12.00;;;6.37;;
4055;SDS011;2043;52.184;8.690;2023-08-24T05:28:37;14.60;;;6.70;;
4055;SDS011;2043;52.184;8.690;2023-08-24T05:31:03;11.90;;;6.60;;
4055;SDS011;2043;52.184;8.690;2023-08-24T05:33:30;10.53;;;6.70;;
4055;SDS011;2043;52.184;8.690;2023-08-24T05:35:59;30.43;;;8.20;;
4055;SDS011;2043;52.184;8.690;2023-08-24T05:38:26;12.63;;;8.47;;
4055;SDS011;2043;52.184;8.690;2023-08-24T05:40:53;13.30;;;7.33;;
4055;SDS011;2043;52.184;8.690;2023-08-24T05:43:20;13.27;;;9.83;;
4055;SDS011;2043;52.184;8.690;2023-08-24T05:45:50;16.20;;;9.20;;
4055;SDS011;2043;52.184;8.690;2023-08-24T05:48:17;11.60;;;8.60;;
4055;SDS011;2043;52.184;8.690;2023-08-24T05:50:44;15.30;;;8.20;;
4055;SDS011;2043;52.184;8.690;2023-08-24T05:53:12;21.00;;;9.33;;
4055;SDS011;2043;52.184;8.690;2023-08-24T05:55:39;18.43;;;8.50;;
4055;SDS011;2043;52.184;8.690;2023-08-24T05:58:06;15.53;;;8.13;;
4055;SDS011;2043;52.184;8.690;2023-08-24T06:00:33;13.90;;;6.67;;
4055;SDS011;2043;52.184;8.690;2023-08-24T06:02:59;11.07;;;6.70;;
4055;SDS011;2043;52.184;8.690;2023-08-24T06:05:26;10.87;;;6.30;;
4055;SDS011;2043;52.184;8.690;2023-08-24T06:07:53;18.10;;;6.50;;
4055;SDS011;2043;52.184;8.690;2023-08-24T06:10:20;11.37;;;6.60;;
4055;SDS011;2043;52.184;8.690;2023-08-24T06:12:48;11.80;;;7.50;;
4055;SDS011;2043;52.184;8.690;2023-08-24T06:15:15;14.10;;;7.50;;
4055;SDS011;2043;52.184;8.690;2023-08-24T06:17:42;12.60;;;7.87;;
4055;SDS011;2043;52.184;8.690;2023-08-24T06:20:09;19.97;;;8.43;;
4055;SDS011;2043;52.184;8.690;2023-08-24T06:22:37;16.20;;;7.90;;
4055;SDS011;2043;52.184;8.690;2023-08-24T06:25:03;15.90;;;7.93;;
4055;SDS011;2043;52.184;8.690;2023-08-24T06:27:31;26.50;;;8.00;;
4055;SDS011;2043;52.184;8.690;2023-08-24T06:29:58;12.03;;;7.70;;
4055;SDS011;2043;52.184;8.690;2023-08-24T06:32:24;11.60;;;6.70;;
4055;SDS011;2043;52.184;8.690;2023-08-24T06:34:51;16.70;;;7.67;;
4055;SDS011;2043;52.184;8.690;2023-08-24T06:37:18;13.20;;;7.83;;
4055;SDS011;2043;52.184;8.690;2023-08-24T06:39:45;14.20;;;8.27;;
4055;SDS011;2043;52.184;8.690;2023-08-24T06:42:12;17.73;;;8.03;;
4055;SDS011;2043;52.184;8.690;2023-08-24T06:44:39;14.47;;;7.43;;
4055;SDS011;2043;52.184;8.690;2023-08-24T06:47:05;18.03;;;7.80;;
4055;SDS011;2043;52.184;8.690;2023-08-24T06:49:32;15.83;;;7.23;;
4055;SDS011;2043;52.184;8.690;2023-08-24T06:51:59;9.60;;;6.53;;
4055;SDS011;2043;52.184;8.690;2023-08-24T06:54:26;13.23;;;7.50;;
4055;SDS011;2043;52.184;8.690;2023-08-24T06:56:54;13.00;;;7.47;;
4055;SDS011;2043;52.184;8.690;2023-08-24T06:59:21;11.93;;;7.00;;
4055;SDS011;2043;52.184;8.690;2023-08-24T07:01:48;15.50;;;7.47;;
4055;SDS011;2043;52.184;8.690;2023-08-24T07:04:14;14.60;;;7.17;;
4055;SDS011;2043;52.184;8.690;2023-08-24T07:06:41;15.67;;;7.37;;
4055;SDS011;2043;52.184;8.690;2023-08-24T07:09:10;10.13;;;7.60;;
4055;SDS011;2043;52.184;8.690;2023-08-24T07:11:37;18.10;;;8.47;;
4055;SDS011;2043;52.184;8.690;2023-08-24T07:14:04;9.83;;;6.90;;
4055;SDS011;2043;52.184;8.690;2023-08-24T07:16:31;17.53;;;7.60;;
4055;SDS011;2043;52.184;8.690;2023-08-24T07:18:57;11.30;;;7.10;;
4055;SDS011;2043;52.184;8.690;2023-08-24T07:21:24;15.00;;;8.10;;
4055;SDS011;2043;52.184;8.690;2023-08-24T07:23:51;12.17;;;7.20;;
4055;SDS011;2043;52.184;8.690;2023-08-24T07:26:18;12.23;;;7.50;;
4055;SDS011;2043;52.184;8.690;2023-08-24T07:28:45;14.10;;;7.40;;
4055;SDS011;2043;52.184;8.690;2023-08-24T07:31:12;16.50;;;7.40;;
4055;SDS011;2043;52.184;8.690;2023-08-24T07:33:40;20.20;;;8.70;;
4055;SDS011;2043;52.184;8.690;2023-08-24T07:36:09;15.60;;;8.17;;
4055;SDS011;2043;52.184;8.690;2023-08-24T07:38:36;16.80;;;8.23;;
4055;SDS011;2043;52.184;8.690;2023-08-24T07:41:03;14.43;;;9.67;;
4055;SDS011;2043;52.184;8.690;2023-08-24T07:43:30;18.67;;;9.30;;
4055;SDS011;2043;52.184;8.690;2023-08-24T07:45:57;11.13;;;9.10;;
4055;SDS011;2043;52.184;8.690;2023-08-24T07:48:24;15.10;;;8.93;;
4055;SDS011;2043;52.184;8.690;2023-08-24T07:50:51;13.87;;;8.50;;
4055;SDS011;2043;52.184;8.690;2023-08-24T07:53:18;18.63;;;9.20;;
4055;SDS011;2043;52.184;8.690;2023-08-24T07:55:45;13.90;;;9.50;;
4055;SDS011;2043;52.184;8.690;2023-08-24T07:58:13;13.43;;;9.70;;
4055;SDS011;2043;52.184;8.690;2023-08-24T08:00:39;18.20;;;9.77;;
4055;SDS011;2043;52.184;8.690;2023-08-24T08:03:07;16.93;;;9.70;;
4055;SDS011;2043;52.184;8.690;2023-08-24T08:05:33;21.13;;;10.37;;
4055;SDS011;2043;52.184;8.690;2023-08-24T08:08:00;16.33;;;9.60;;
4055;SDS011;2043;52.184;8.690;2023-08-24T08:10:30;12.63;;;9.33;;
4055;SDS011;2043;52.184;8.690;2023-08-24T08:12:57;16.57;;;9.27;;
4055;SDS011;2043;52.184;8.690;2023-08-24T08:15:24;16.77;;;8.60;;
4055;SDS011;2043;52.184;8.690;2023-08-24T08:17:51;35.37;;;9.53;;
4055;SDS011;2043;52.184;8.690;2023-08-24T08:20:19;21.13;;;9.77;;
4055;SDS011;2043;52.184;8.690;2023-08-24T08:22:46;11.83;;;8.70;;
4055;SDS011;2043;52.184;8.690;2023-08-24T08:25:12;12.90;;;8.97;;
4055;SDS011;2043;52.184;8.690;2023-08-24T08:27:39;13.00;;;9.40;;
4055;SDS011;2043;52.184;8.690;2023-08-24T08:30:06;17.30;;;9.10;;
4055;SDS011;2043;52.184;8.690;2023-08-24T08:32:33;15.30;;;9.87;;
4055;SDS011;2043;52.184;8.690;2023-08-24T08:35:00;11.20;;;8.27;;
4055;SDS011;2043;52.184;8.690;2023-08-24T08:37:30;14.80;;;8.80;;
4055;SDS011;2043;52.184;8.690;2023-08-24T08:39:58;11.37;;;8.90;;
4055;SDS011;2043;52.184;8.690;2023-08-24T08:42:24;11.30;;;8.90;;
4055;SDS011;2043;52.184;8.690;2023-08-24T08:44:51;15.30;;;8.70;;
4055;SDS011;2043;52.184;8.690;2023-08-24T08:47:20;15.20;;;9.63;;
4055;SDS011;2043;52.184;8.690;2023-08-24T08:49:50;15.07;;;10.50;;
4055;SDS011;2043;52.184;8.690;2023-08-24T08:52:18;14.73;;;9.20;;
4055;SDS011;2043;52.184;8.690;2023-08-24T08:54:45;13.83;;;9.43;;
4055;SDS011;2043;52.184;8.690;2023-08-24T08:57:12;18.03;;;11.60;;
4055;SDS011;2043;52.184;8.690;2023-08-24T08:59:40;16.53;;;10.17;;
4055;SDS011;2043;52.184;8.690;2023-08-24T09:02:07;10.70;;;8.80;;
4055;SDS011;2043;52.184;8.690;2023-08-24T09:04:39;11.80;;;8.27;;
4055;SDS011;2043;52.184;8.690;2023-08-24T09:07:06;13.30;;;9.30;;
4055;SDS011;2043;52.184;8.690;2023-08-24T09:09:37;12.00;;;10.27;;
4055;SDS011;2043;52.184;8.690;2023-08-24T09:12:05;17.47;;;9.87;;
4055;SDS011;2043;52.184;8.690;2023-08-24T09:14:33;13.40;;;9.13;;
4055;SDS011;2043;52.184;8.690;2023-08-24T09:16:59;14.88;;;8.55;;
4055;SDS011;2043;52.184;8.690;2023-08-24T09:19:30;11.93;;;8.70;;
4055;SDS011;2043;52.184;8.690;2023-08-24T09:22:00;13.52;;;7.90;;
4055;SDS011;2043;52.184;8.690;2023-08-24T09:24:30;14.77;;;9.00;;
4055;SDS011;2043;52.184;8.690;2023-08-24T09:27:14;19.13;;;9.17;;
4055;SDS011;2043;52.184;8.690;2023-08-24T09:29:43;13.93;;;9.07;;
4055;SDS011;2043;52.184;8.690;2023-08-24T09:32:22;13.57;;;8.18;;
4055;SDS011;2043;52.184;8.690;2023-08-24T09:34:50;15.00;;;9.35;;
4055;SDS011;2043;52.184;8.690;2023-08-24T09:37:17;15.80;;;9.05;;
4055;SDS011;2043;52.184;8.690;2023-08-24T09:39:44;13.13;;;7.65;;
4055;SDS011;2043;52.184;8.690;2023-08-24T09:42:12;11.93;;;7.30;;
4055;SDS011;2043;52.184;8.690;2023-08-24T09:44:43;11.43;;;7.68;;
4055;SDS011;2043;52.184;8.690;2023-08-24T09:47:11;16.40;;;9.57;;
4055;SDS011;2043;52.184;8.690;2023-08-24T09:49:38;12.20;;;8.90;;
4055;SDS011;2043;52.184;8.690;2023-08-24T09:52:06;18.48;;;10.13;;
4055;SDS011;2043;52.184;8.690;2023-08-24T09:54:36;19.80;;;8.93;;
4055;SDS011;2043;52.184;8.690;2023-08-24T09:57:04;12.50;;;8.63;;
4055;SDS011;2043;52.184;8.690;2023-08-24T09:59:34;12.90;;;8.52;;
4055;SDS011;2043;52.184;8.690;2023-08-24T10:02:01;16.08;;;8.52;;
4055;SDS011;2043;52.184;8.690;2023-08-24T10:04:28;10.93;;;9.05;;
4055;SDS011;2043;52.184;8.690;2023-08-24T10:07:02;16.33;;;9.63;;
4055;SDS011;2043;52.184;8.690;2023-08-24T10:12:26;11.52;;;8.80;;
4055;SDS011;2043;52.184;8.690;2023-08-24T10:15:01;10.82;;;8.02;;
4055;SDS011;2043;52.184;8.690;2023-08-24T10:17:34;11.35;;;7.40;;
4055;SDS011;2043;52.184;8.690;2023-08-24T10:20:03;15.13;;;7.80;;
4055;SDS011;2043;52.184;8.690;2023-08-24T10:22:34;13.77;;;7.70;;
4055;SDS011;2043;52.184;8.690;2023-08-24T10:25:02;13.60;;;7.55;;
4055;SDS011;2043;52.184;8.690;2023-08-24T10:27:30;17.45;;;7.80;;
4055;SDS011;2043;52.184;8.690;2023-08-24T10:29:56;11.90;;;6.90;;
4055;SDS011;2043;52.184;8.690;2023-08-24T10:32:26;11.23;;;6.30;;
4055;SDS011;2043;52.184;8.690;2023-08-24T10:34:53;14.27;;;6.45;;
4055;SDS011;2043;52.184;8.690;2023-08-24T10:37:26;9.88;;;6.82;;
4055;SDS011;2043;52.184;8.690;2023-08-24T10:39:54;14.48;;;6.43;;
4055;SDS011;2043;52.184;8.690;2023-08-24T10:42:21;15.95;;;7.32;;
4055;SDS011;2043;52.184;8.690;2023-08-24T10:44:48;9.07;;;5.88;;
4055;SDS011;2043;52.184;8.690;2023-08-24T10:52:42;15.00;;;6.18;;
4055;SDS011;2043;52.184;8.690;2023-08-24T10:55:23;10.48;;;5.55;;
4055;SDS011;2043;52.184;8.690;2023-08-24T10:57:55;10.00;;;5.68;;
4055;SDS011;2043;52.184;8.690;2023-08-24T11:00:27;11.18;;;6.93;;
4055;SDS011;2043;52.184;8.690;2023-08-24T11:02:57;14.75;;;6.05;;
4055;SDS011;2043;52.184;8.690;2023-08-24T11:05:30;12.30;;;6.00;;
4055;SDS011;2043;52.184;8.690;2023-08-24T11:07:59;8.85;;;5.95;;
4055;SDS011;2043;52.184;8.690;2023-08-24T11:10:34;10.82;;;4.93;;
4055;SDS011;2043;52.184;8.690;2023-08-24T11:13:14;16.88;;;5.20;;
4055;SDS011;2043;52.184;8.690;2023-08-24T11:18:30;7.05;;;4.88;;
4055;SDS011;2043;52.184;8.690;2023-08-24T11:20:57;10.38;;;5.05;;
4055;SDS011;2043;52.184;8.690;2023-08-24T11:23:28;5.80;;;4.28;;
4055;SDS011;2043;52.184;8.690;2023-08-24T11:25:56;9.90;;;4.80;;
4055;SDS011;2043;52.184;8.690;2023-08-24T11:28:26;9.00;;;5.20;;
4055;SDS011;2043;52.184;8.690;2023-08-24T11:30:54;10.05;;;5.28;;
4055;SDS011;2043;52.184;8.690;2023-08-24T11:33:34;8.23;;;4.90;;
4055;SDS011;2043;52.184;8.690;2023-08-24T11:36:04;11.07;;;5.15;;
4055;SDS011;2043;52.184;8.690;2023-08-24T11:38:40;9.68;;;4.90;;
4055;SDS011;2043;52.184;8.690;2023-08-24T11:41:17;8.98;;;4.75;;
4055;SDS011;2043;52.184;8.690;2023-08-24T11:43:46;10.18;;;4.95;;
4055;SDS011;2043;52.184;8.690;2023-08-24T11:46:17;7.80;;;4.88;;
4055;SDS011;2043;52.184;8.690;2023-08-24T11:48:45;12.63;;;4.85;;
4055;SDS011;2043;52.184;8.690;2023-08-24T11:51:12;15.40;;;5.20;;
4055;SDS011;2043;52.184;8.690;2023-08-24T11:53:43;11.07;;;4.80;;
4055;SDS011;2043;52.184;8.690;2023-08-24T11:56:14;7.97;;;4.22;;
4055;SDS011;2043;52.184;8.690;2023-08-24T11:58:47;5.20;;;4.00;;
4055;SDS011;2043;52.184;8.690;2023-08-24T12:01:15;8.50;;;4.65;;
4055;SDS011;2043;52.184;8.690;2023-08-24T12:03:42;7.25;;;4.35;;
4055;SDS011;2043;52.184;8.690;2023-08-24T12:06:16;6.78;;;4.70;;
4055;SDS011;2043;52.184;8.690;2023-08-24T12:08:45;11.52;;;4.40;;
4055;SDS011;2043;52.184;8.690;2023-08-24T12:13:52;8.30;;;3.65;;
4055;SDS011;2043;52.184;8.690;2023-08-24T12:18:59;7.22;;;3.50;;
4055;SDS011;2043;52.184;8.690;2023-08-24T12:21:29;9.40;;;3.90;;
4055;SDS011;2043;52.184;8.690;2023-08-24T12:24:06;5.40;;;3.22;;
4055;SDS011;2043;52.184;8.690;2023-08-24T12:26:34;7.68;;;3.20;;
4055;SDS011;2043;52.184;8.690;2023-08-24T12:31:31;4.78;;;3.13;;
4055;SDS011;2043;52.184;8.690;2023-08-24T12:33:59;4.97;;;3.03;;
4055;SDS011;2043;52.184;8.690;2023-08-24T12:36:26;7.75;;;3.38;;
4055;SDS011;2043;52.184;8.690;2023-08-24T12:38:53;8.35;;;3.78;;
4055;SDS011;2043;52.184;8.690;2023-08-24T12:41:21;6.82;;;3.67;;
4055;SDS011;2043;52.184;8.690;2023-08-24T12:43:48;6.35;;;3.70;;
4055;SDS011;2043;52.184;8.690;2023-08-24T12:46:16;7.38;;;3.60;;
4055;SDS011;2043;52.184;8.690;2023-08-24T12:48:43;6.47;;;3.58;;
4055;SDS011;2043;52.184;8.690;2023-08-24T12:51:09;7.90;;;3.83;;
4055;SDS011;2043;52.184;8.690;2023-08-24T12:53:37;8.55;;;3.20;;
4055;SDS011;2043;52.184;8.690;2023-08-24T12:56:04;5.40;;;3.00;;
4055;SDS011;2043;52.184;8.690;2023-08-24T12:58:31;7.20;;;3.45;;
4055;SDS011;2043;52.184;8.690;2023-08-24T13:00:58;8.57;;;3.45;;
4055;SDS011;2043;52.184;8.690;2023-08-24T13:03:25;4.63;;;3.15;;
4055;SDS011;2043;52.184;8.690;2023-08-24T13:05:52;9.02;;;3.20;;
4055;SDS011;2043;52.184;8.690;2023-08-24T13:08:21;4.85;;;2.92;;
4055;SDS011;2043;52.184;8.690;2023-08-24T13:10:47;5.05;;;3.03;;
4055;SDS011;2043;52.184;8.690;2023-08-24T13:13:15;9.90;;;3.20;;
4055;SDS011;2043;52.184;8.690;2023-08-24T13:15:42;7.20;;;3.10;;
4055;SDS011;2043;52.184;8.690;2023-08-24T13:18:09;9.80;;;3.20;;
4055;SDS011;2043;52.184;8.690;2023-08-24T13:20:36;8.02;;;3.35;;
4055;SDS011;2043;52.184;8.690;2023-08-24T13:23:02;7.22;;;3.33;;
4055;SDS011;2043;52.184;8.690;2023-08-24T13:25:29;6.80;;;3.55;;
4055;SDS011;2043;52.184;8.690;2023-08-24T13:27:56;7.28;;;3.60;;
4055;SDS011;2043;52.184;8.690;2023-08-24T13:30:23;8.10;;;3.45;;
4055;SDS011;2043;52.184;8.690;2023-08-24T13:32:50;5.90;;;3.75;;
4055;SDS011;2043;52.184;8.690;2023-08-24T13:35:17;6.57;;;4.03;;
4055;SDS011;2043;52.184;8.690;2023-08-24T13:37:44;6.03;;;3.65;;
4055;SDS011;2043;52.184;8.690;2023-08-24T13:40:11;5.53;;;3.83;;
4055;SDS011;2043;52.184;8.690;2023-08-24T13:42:38;10.43;;;3.70;;
4055;SDS011;2043;52.184;8.690;2023-08-24T13:45:05;7.32;;;4.00;;
4055;SDS011;2043;52.184;8.690;2023-08-24T13:47:32;5.38;;;3.90;;
4055;SDS011;2043;52.184;8.690;2023-08-24T13:49:59;8.05;;;4.40;;
4055;SDS011;2043;52.184;8.690;2023-08-24T13:52:25;8.25;;;3.90;;
4055;SDS011;2043;52.184;8.690;2023-08-24T13:54:52;10.43;;;4.20;;
4055;SDS011;2043;52.184;8.690;2023-08-24T13:57:37;10.93;;;4.40;;
4055;SDS011;2043;52.184;8.690;2023-08-24T14:00:03;8.15;;;4.22;;
4055;SDS011;2043;52.184;8.690;2023-08-24T14:02:34;9.10;;;3.80;;
4055;SDS011;2043;52.184;8.690;2023-08-24T14:05:00;9.20;;;4.40;;
4055;SDS011;2043;52.184;8.690;2023-08-24T14:07:27;9.73;;;4.18;;
4055;SDS011;2043;52.184;8.690;2023-08-24T14:09:54;9.38;;;4.32;;
4055;SDS011;2043;52.184;8.690;2023-08-24T14:12:31;10.80;;;7.22;;
4055;SDS011;2043;52.184;8.690;2023-08-24T14:14:59;11.23;;;4.05;;
4055;SDS011;2043;52.184;8.690;2023-08-24T14:17:26;8.48;;;4.25;;
4055;SDS011;2043;52.184;8.690;2023-08-24T14:19:53;10.43;;;4.95;;
4055;SDS011;2043;52.184;8.690;2023-08-24T14:22:20;7.15;;;3.92;;
4055;SDS011;2043;52.184;8.690;2023-08-24T14:24:46;7.47;;;4.47;;
4055;SDS011;2043;52.184;8.690;2023-08-24T14:27:13;12.68;;;4.93;;
4055;SDS011;2043;52.184;8.690;2023-08-24T14:29:40;13.07;;;4.03;;
4055;SDS011;2043;52.184;8.690;2023-08-24T14:32:07;7.28;;;4.32;;
4055;SDS011;2043;52.184;8.690;2023-08-24T14:34:34;6.57;;;4.03;;
4055;SDS011;2043;52.184;8.690;2023-08-24T14:37:01;7.53;;;4.45;;
4055;SDS011;2043;52.184;8.690;2023-08-24T14:39:27;10.65;;;4.43;;
4055;SDS011;2043;52.184;8.690;2023-08-24T14:41:54;11.90;;;4.60;;
4055;SDS011;2043;52.184;8.690;2023-08-24T14:44:21;12.57;;;4.47;;
4055;SDS011;2043;52.184;8.690;2023-08-24T14:46:48;9.43;;;4.55;;
4055;SDS011;2043;52.184;8.690;2023-08-24T14:49:15;12.52;;;4.38;;
4055;SDS011;2043;52.184;8.690;2023-08-24T14:51:45;12.85;;;4.40;;
4055;SDS011;2043;52.184;8.690;2023-08-24T14:54:13;10.85;;;5.00;;
4055;SDS011;2043;52.184;8.690;2023-08-24T14:56:40;7.60;;;4.35;;
4055;SDS011;2043;52.184;8.690;2023-08-24T14:59:07;6.82;;;4.53;;
4055;SDS011;2043;52.184;8.690;2023-08-24T15:01:34;12.77;;;4.45;;
4055;SDS011;2043;52.184;8.690;2023-08-24T15:04:01;9.48;;;4.50;;
4055;SDS011;2043;52.184;8.690;2023-08-24T15:06:28;14.05;;;4.50;;
4055;SDS011;2043;52.184;8.690;2023-08-24T15:08:55;9.55;;;4.22;;
4055;SDS011;2043;52.184;8.690;2023-08-24T15:11:22;8.20;;;4.70;;
4055;SDS011;2043;52.184;8.690;2023-08-24T15:13:49;6.80;;;4.45;;
4055;SDS011;2043;52.184;8.690;2023-08-24T15:16:15;9.77;;;4.93;;
4055;SDS011;2043;52.184;8.690;2023-08-24T15:18:42;12.95;;;4.82;;
4055;SDS011;2043;52.184;8.690;2023-08-24T15:21:09;13.27;;;4.70;;
4055;SDS011;2043;52.184;8.690;2023-08-24T15:23:36;10.77;;;4.90;;
4055;SDS011;2043;52.184;8.690;2023-08-24T15:26:03;10.07;;;5.28;;
4055;SDS011;2043;52.184;8.690;2023-08-24T15:28:37;12.10;;;4.93;;
4055;SDS011;2043;52.184;8.690;2023-08-24T15:31:24;18.85;;;6.47;;